createdAt,value
2023-03-17T00:01:54.953Z,13.52
2023-03-17T00:04:27.188Z,13.53
2023-03-17T00:06:55.604Z,13.54
2023-03-17T00:09:25.620Z,13.55
2023-03-17T00:11:55.464Z,13.55
2023-03-17T00:14:24.669Z,13.61
2023-03-17T00:16:53.595Z,13.59
2023-03-17T00:19:26.883Z,13.55
2023-03-17T00:21:59.465Z,13.53
2023-03-17T00:24:28.711Z,13.61
2023-03-17T00:26:57.346Z,13.63
2023-03-17T00:29:27.083Z,13.67
2023-03-17T00:31:57.401Z,13.66
2023-03-17T00:34:32.589Z,13.74
2023-03-17T00:37:02.163Z,13.74
2023-03-17T00:39:30.598Z,13.73
2023-03-17T00:42:24.811Z,13.64
2023-03-17T00:44:55.890Z,13.59
2023-03-17T00:47:25.239Z,13.60
2023-03-17T00:49:53.654Z,13.58
2023-03-17T00:52:23.029Z,13.56
2023-03-17T00:54:51.537Z,13.53
2023-03-17T00:57:19.761Z,13.54
2023-03-17T00:59:50.053Z,13.52
2023-03-17T01:02:22.862Z,13.52
2023-03-17T01:04:59.777Z,13.55
2023-03-17T01:08:05.272Z,13.52
2023-03-17T01:10:33.922Z,13.49
2023-03-17T01:13:06.381Z,13.53
2023-03-17T01:15:35.700Z,13.60
2023-03-17T01:18:10.263Z,13.66
2023-03-17T01:20:41.035Z,13.64
2023-03-17T01:23:10.195Z,13.76
2023-03-17T01:25:43.419Z,13.72
2023-03-17T01:28:17.121Z,13.64
2023-03-17T01:30:49.560Z,13.67
2023-03-17T01:33:21.270Z,13.67
2023-03-17T01:35:51.763Z,13.65
2023-03-17T01:38:20.805Z,13.65
2023-03-17T01:40:50.077Z,13.56
2023-03-17T01:43:23.211Z,13.57
2023-03-17T01:50:06.667Z,13.73
2023-03-17T01:52:39.572Z,13.79
2023-03-17T01:55:14.615Z,13.69
2023-03-17T01:57:51.556Z,13.67
2023-03-17T02:00:21.015Z,13.64
2023-03-17T02:02:51.503Z,13.65
2023-03-17T02:05:26.650Z,13.86
2023-03-17T02:07:55.808Z,13.68
2023-03-17T02:10:30.386Z,13.73
2023-03-17T02:13:00.173Z,13.96
2023-03-17T02:15:38.033Z,14.08
2023-03-17T02:18:07.983Z,14.16
2023-03-17T02:20:40.221Z,14.17
2023-03-17T02:23:12.600Z,14.01
2023-03-17T02:25:42.744Z,14.01
2023-03-17T02:28:14.419Z,13.97
2023-03-17T02:30:43.455Z,14.05
2023-03-17T02:33:13.060Z,14.03
2023-03-17T02:35:42.485Z,14.04
2023-03-17T02:38:53.130Z,14.08
2023-03-17T02:45:03.555Z,13.75
2023-03-17T02:47:33.310Z,13.68
2023-03-17T02:50:02.282Z,13.73
2023-03-17T02:52:34.318Z,13.82
2023-03-17T02:55:08.480Z,13.89
2023-03-17T02:57:38.366Z,13.91
2023-03-17T03:00:08.575Z,13.86
2023-03-17T03:02:38.422Z,13.78
2023-03-17T03:05:09.025Z,13.80
2023-03-17T03:07:37.929Z,13.80
2023-03-17T03:10:08.086Z,13.81
2023-03-17T03:12:36.628Z,13.85
2023-03-17T03:15:23.716Z,14.06
2023-03-17T03:17:52.336Z,13.79
2023-03-17T03:20:22.198Z,13.77
2023-03-17T03:22:53.226Z,13.74
2023-03-17T03:25:22.390Z,13.71
2023-03-17T03:27:52.557Z,13.61
2023-03-17T03:30:21.868Z,13.51
2023-03-17T03:32:50.502Z,13.48
2023-03-17T03:35:20.173Z,13.46
2023-03-17T03:37:51.240Z,13.47
2023-03-17T03:40:21.226Z,13.48
2023-03-17T03:42:49.837Z,13.42
2023-03-17T03:45:18.390Z,13.38
2023-03-17T03:47:47.912Z,13.37
2023-03-17T03:50:16.455Z,13.35
2023-03-17T03:52:45.858Z,13.35
2023-03-17T03:55:18.299Z,13.32
2023-03-17T03:57:47.192Z,13.32
2023-03-17T04:00:18.049Z,13.24
2023-03-17T04:02:48.120Z,13.25
2023-03-17T04:05:18.720Z,13.13
2023-03-17T04:07:48.249Z,13.17
2023-03-17T04:10:17.131Z,13.30
2023-03-17T04:12:48.351Z,13.39
2023-03-17T04:15:18.110Z,13.44
2023-03-17T04:17:46.645Z,13.48
2023-03-17T04:20:15.615Z,13.67
2023-03-17T04:22:44.254Z,13.65
2023-03-17T04:25:14.451Z,13.48
2023-03-17T04:27:42.903Z,13.47
2023-03-17T04:30:14.001Z,13.29
2023-03-17T04:32:42.613Z,13.19
2023-03-17T04:35:16.621Z,13.26
2023-03-17T04:37:51.327Z,13.45
2023-03-17T04:40:26.867Z,13.60
2023-03-17T04:42:56.828Z,13.50
2023-03-17T04:45:26.280Z,13.51
2023-03-17T04:47:56.084Z,13.56
2023-03-17T04:50:27.879Z,13.55
2023-03-17T04:52:57.217Z,13.52
2023-03-17T04:55:27.994Z,13.43
2023-03-17T04:57:57.612Z,13.30
2023-03-17T05:00:26.329Z,13.10
2023-03-17T05:02:54.774Z,12.95
2023-03-17T05:05:25.837Z,12.74
2023-03-17T05:07:55.589Z,12.81
2023-03-17T05:10:24.265Z,12.95
2023-03-17T05:12:54.397Z,13.06
2023-03-17T05:15:23.530Z,13.04
2023-03-17T05:17:51.952Z,13.19
2023-03-17T05:20:21.640Z,13.26
2023-03-17T05:22:50.317Z,13.20
2023-03-17T05:25:26.976Z,13.20
2023-03-17T05:27:55.445Z,13.31
2023-03-17T05:30:26.994Z,13.26
2023-03-17T05:32:56.109Z,13.27
2023-03-17T05:35:27.885Z,13.05
2023-03-17T05:37:59.431Z,12.91
2023-03-17T05:40:31.912Z,12.93
2023-03-17T05:43:01.598Z,12.97
2023-03-17T05:45:30.816Z,13.06
2023-03-17T05:48:04.994Z,13.11
2023-03-17T05:50:42.282Z,13.29
2023-03-17T05:53:16.017Z,13.21
2023-03-17T05:55:45.038Z,13.25
2023-03-17T05:58:16.009Z,13.46
2023-03-17T06:00:44.701Z,13.55
2023-03-17T06:03:13.407Z,13.33
2023-03-17T06:05:43.447Z,13.14
2023-03-17T06:08:12.035Z,13.15
2023-03-17T06:10:42.584Z,13.09
2023-03-17T06:13:11.945Z,13.11
2023-03-17T06:15:43.315Z,13.26
2023-03-17T06:18:11.969Z,13.44
2023-03-17T06:20:44.555Z,13.28
2023-03-17T06:23:13.434Z,13.02
2023-03-17T06:25:41.977Z,13.30
2023-03-17T06:28:12.372Z,13.14
2023-03-17T06:30:44.752Z,13.28
2023-03-17T06:33:19.460Z,13.18
2023-03-17T06:35:48.550Z,13.10
2023-03-17T06:38:19.010Z,13.17
2023-03-17T06:40:53.360Z,13.19
2023-03-17T06:43:25.142Z,13.13
2023-03-17T06:45:56.627Z,13.33
2023-03-17T06:48:25.412Z,13.27
2023-03-17T06:50:53.859Z,13.28
2023-03-17T06:53:24.090Z,13.16
2023-03-17T06:55:53.299Z,13.25
2023-03-17T06:58:24.114Z,13.39
2023-03-17T07:01:00.743Z,13.37
2023-03-17T07:03:31.612Z,13.47
2023-03-17T07:06:01.140Z,13.51
2023-03-17T07:08:53.023Z,13.43
2023-03-17T07:11:35.780Z,13.55
2023-03-17T07:14:38.459Z,13.62
2023-03-17T07:17:09.123Z,13.71
2023-03-17T07:20:17.814Z,13.80
2023-03-17T07:22:49.885Z,13.90
2023-03-17T07:25:27.106Z,13.86
2023-03-17T07:28:23.903Z,13.88
2023-03-17T07:30:55.004Z,14.01
2023-03-17T07:33:27.490Z,14.11
2023-03-17T07:36:18.724Z,14.21
2023-03-17T07:39:12.192Z,14.24
2023-03-17T07:41:52.224Z,14.26
2023-03-17T07:44:41.804Z,14.26
2023-03-17T07:47:21.372Z,14.11
2023-03-17T07:50:36.964Z,14.09
2023-03-17T07:58:42.891Z,14.26
2023-03-17T08:01:33.210Z,14.28
2023-03-17T08:04:17.393Z,14.54
2023-03-17T08:07:00.054Z,14.49
2023-03-17T08:09:30.349Z,14.41
2023-03-17T08:12:01.962Z,14.39
2023-03-17T08:14:48.312Z,14.49
2023-03-17T08:17:35.874Z,14.50
2023-03-17T08:20:36.154Z,14.63
2023-03-17T08:23:19.190Z,14.78
2023-03-17T08:26:29.106Z,14.87
2023-03-17T08:29:09.987Z,14.89
2023-03-17T08:31:41.470Z,14.75
2023-03-17T08:34:13.462Z,14.71
2023-03-17T08:36:43.352Z,14.55
2023-03-17T08:39:12.186Z,14.47
2023-03-17T08:42:05.133Z,14.52
2023-03-17T08:44:47.126Z,14.60
2023-03-17T08:47:26.572Z,14.59
2023-03-17T08:50:14.431Z,14.57
2023-03-17T08:53:06.126Z,14.75
2023-03-17T08:55:39.986Z,14.99
2023-03-17T08:58:29.262Z,15.08
2023-03-17T09:01:01.458Z,15.27
2023-03-17T09:03:31.120Z,15.40
2023-03-17T09:06:01.158Z,15.48
2023-03-17T09:08:30.126Z,15.44
2023-03-17T09:10:58.966Z,15.45
2023-03-17T09:13:29.683Z,15.56
2023-03-17T09:16:00.179Z,15.57
2023-03-17T09:18:31.615Z,15.44
2023-03-17T09:21:23.352Z,15.35
2023-03-17T09:23:51.876Z,15.36
2023-03-17T09:26:20.735Z,15.33
2023-03-17T09:28:50.085Z,15.17
2023-03-17T09:31:20.052Z,15.20
2023-03-17T09:33:52.944Z,15.27
2023-03-17T09:36:21.922Z,15.19
2023-03-17T09:38:51.649Z,15.11
2023-03-17T09:41:38.176Z,15.20
2023-03-17T09:44:17.162Z,15.02
2023-03-17T09:46:49.034Z,14.87
2023-03-17T09:49:21.080Z,14.74
2023-03-17T09:51:52.321Z,14.89
2023-03-17T09:54:40.315Z,14.98
2023-03-17T09:57:13.992Z,14.98
2023-03-17T09:59:44.143Z,14.99
2023-03-17T10:02:19.263Z,14.91
2023-03-17T10:04:49.104Z,15.06
2023-03-17T10:07:19.988Z,15.22
2023-03-17T10:09:54.083Z,15.41
2023-03-17T10:12:27.901Z,15.32
2023-03-17T10:15:07.123Z,15.30
2023-03-17T10:17:37.095Z,15.37
2023-03-17T10:20:11.944Z,15.18
2023-03-17T10:22:42.992Z,15.12
2023-03-17T10:25:18.276Z,15.25
2023-03-17T10:27:53.241Z,15.19
2023-03-17T10:30:22.451Z,15.20
2023-03-17T10:32:52.608Z,15.01
2023-03-17T10:35:23.191Z,15.02
2023-03-17T10:37:58.913Z,15.10
2023-03-17T10:40:36.468Z,15.05
2023-03-17T10:43:08.325Z,14.93
2023-03-17T10:45:45.217Z,14.72
2023-03-17T10:48:17.772Z,14.62
2023-03-17T10:50:48.601Z,14.66
2023-03-17T10:53:28.471Z,14.63
2023-03-17T10:56:03.716Z,14.59
2023-03-17T10:58:43.835Z,14.62
2023-03-17T11:01:28.123Z,14.69
2023-03-17T11:03:57.815Z,14.88
2023-03-17T11:06:31.445Z,14.85
2023-03-17T11:09:02.718Z,14.88
2023-03-17T11:11:44.700Z,14.97
2023-03-17T11:14:14.654Z,15.07
2023-03-17T11:16:50.971Z,15.01
2023-03-17T11:19:43.522Z,15.04
2023-03-17T11:22:40.507Z,15.12
2023-03-17T11:25:17.863Z,15.18
2023-03-17T11:27:50.198Z,15.14
2023-03-17T11:30:37.610Z,15.17
2023-03-17T11:33:25.646Z,15.29
2023-03-17T11:36:01.282Z,15.33
2023-03-17T11:38:31.331Z,15.25
2023-03-17T11:41:18.437Z,15.17
2023-03-17T11:43:47.220Z,15.24
2023-03-17T11:46:19.175Z,15.13
2023-03-17T11:48:48.447Z,15.05
2023-03-17T11:51:23.142Z,14.90
2023-03-17T11:54:10.078Z,14.79
2023-03-17T11:56:39.831Z,14.78
2023-03-17T11:59:14.358Z,14.86
2023-03-17T12:01:49.389Z,14.64
2023-03-17T12:04:20.468Z,14.61
2023-03-17T12:06:53.402Z,14.31
2023-03-17T12:09:42.625Z,14.36
2023-03-17T12:12:11.470Z,14.55
2023-03-17T12:14:49.002Z,14.42
2023-03-17T12:17:27.126Z,14.42
2023-03-17T12:20:09.894Z,14.58
2023-03-17T12:22:43.358Z,14.69
2023-03-17T12:25:16.747Z,14.69
2023-03-17T12:27:54.859Z,14.78
2023-03-17T12:30:29.440Z,14.77
2023-03-17T12:33:01.570Z,14.64
2023-03-17T12:35:32.423Z,14.66
2023-03-17T12:38:03.236Z,14.47
2023-03-17T12:40:43.046Z,14.20
2023-03-17T12:43:18.601Z,14.27
2023-03-17T12:45:57.557Z,14.29
2023-03-17T12:48:30.019Z,14.26
2023-03-17T12:51:17.829Z,14.30
2023-03-17T12:53:48.031Z,14.09
2023-03-17T12:56:36.326Z,13.70
2023-03-17T12:59:09.328Z,13.69
2023-03-17T13:01:38.858Z,13.80
2023-03-17T13:04:07.436Z,13.70
2023-03-17T13:06:43.250Z,13.55
2023-03-17T13:09:31.832Z,13.48
2023-03-17T13:12:01.528Z,13.65
2023-03-17T13:14:31.183Z,13.63
2023-03-17T13:17:05.137Z,13.69
2023-03-17T13:19:33.823Z,13.72
2023-03-17T13:22:07.117Z,13.60
2023-03-17T13:24:47.864Z,13.51
2023-03-17T13:27:31.115Z,13.55
2023-03-17T13:30:01.558Z,13.42
2023-03-17T13:32:32.993Z,13.16
2023-03-17T13:35:01.867Z,13.30
2023-03-17T13:37:30.619Z,13.29
2023-03-17T13:40:11.276Z,12.98
2023-03-17T13:42:44.831Z,12.48
2023-03-17T13:45:33.622Z,12.86
2023-03-17T13:48:20.842Z,12.92
2023-03-17T13:50:49.249Z,12.77
2023-03-17T13:53:17.734Z,12.86
2023-03-17T13:56:23.650Z,12.83
2023-03-17T13:59:05.541Z,12.67
2023-03-17T14:02:00.297Z,12.82
2023-03-17T14:04:30.441Z,12.64
2023-03-17T14:06:59.959Z,12.73
2023-03-17T14:09:36.902Z,12.52
2023-03-17T14:12:26.509Z,12.54
2023-03-17T14:15:08.488Z,12.61
2023-03-17T14:17:45.173Z,12.79
2023-03-17T14:20:22.894Z,12.78
2023-03-17T14:23:02.254Z,12.63
2023-03-17T14:25:38.445Z,12.50
2023-03-17T14:28:15.109Z,12.47
2023-03-17T14:30:55.427Z,12.74
2023-03-17T14:33:26.750Z,12.70
2023-03-17T14:35:57.274Z,12.80
2023-03-17T14:38:28.079Z,12.82
2023-03-17T14:41:01.192Z,12.84
2023-03-17T14:43:30.943Z,12.79
2023-03-17T14:46:08.207Z,12.74
2023-03-17T14:48:38.213Z,12.63
2023-03-17T14:51:11.256Z,12.65
2023-03-17T14:53:40.853Z,12.45
2023-03-17T14:56:09.403Z,12.20
2023-03-17T14:58:48.861Z,12.23
2023-03-17T15:01:18.853Z,12.22
2023-03-17T15:03:57.379Z,12.03
2023-03-17T15:06:27.793Z,11.94
2023-03-17T15:09:00.776Z,11.70
2023-03-17T15:11:41.171Z,11.70
2023-03-17T15:14:40.672Z,11.55
2023-03-17T15:17:20.441Z,11.30
2023-03-17T15:19:57.592Z,11.26
2023-03-17T15:22:38.260Z,11.02
2023-03-17T15:25:28.798Z,11.04
2023-03-17T15:27:59.418Z,11.15
2023-03-17T15:30:46.247Z,11.10
2023-03-17T15:33:29.485Z,11.17
2023-03-17T15:36:00.525Z,11.05
2023-03-17T15:38:49.058Z,11.03
2023-03-17T15:41:19.855Z,10.97
2023-03-17T15:43:55.641Z,10.92
2023-03-17T15:46:25.178Z,11.07
2023-03-17T15:49:00.026Z,11.17
2023-03-17T15:51:35.849Z,11.00
2023-03-17T15:54:06.069Z,11.26
2023-03-17T15:56:38.835Z,11.14
2023-03-17T15:59:07.278Z,11.37
2023-03-17T16:01:36.688Z,11.28
2023-03-17T16:04:57.036Z,11.26
2023-03-17T16:07:27.346Z,11.23
2023-03-17T16:09:56.080Z,11.32
2023-03-17T16:12:28.154Z,11.50
2023-03-17T16:15:05.448Z,11.27
2023-03-17T16:17:39.545Z,11.24
2023-03-17T16:20:32.397Z,11.17
2023-03-17T16:23:14.924Z,10.98
2023-03-17T16:25:48.502Z,10.90
2023-03-17T16:28:21.198Z,10.99
2023-03-17T16:31:15.144Z,11.19
2023-03-17T16:33:55.380Z,11.21
2023-03-17T16:36:27.231Z,11.08
2023-03-17T16:38:58.068Z,11.15
2023-03-17T16:41:27.786Z,11.67
2023-03-17T16:44:01.943Z,12.75
2023-03-17T16:46:35.079Z,12.99
2023-03-17T16:49:07.773Z,12.24
2023-03-17T16:51:36.590Z,11.84
2023-03-17T16:54:06.806Z,11.50
2023-03-17T16:56:35.690Z,11.27
2023-03-17T16:59:14.422Z,11.12
2023-03-17T17:01:43.865Z,11.21
2023-03-17T17:04:14.182Z,11.25
2023-03-17T17:06:42.763Z,11.25
2023-03-17T17:09:11.681Z,11.32
2023-03-17T17:11:40.372Z,11.36
2023-03-17T17:14:09.163Z,11.22
2023-03-17T17:16:40.691Z,11.33
2023-03-17T17:19:16.958Z,11.38
2023-03-17T17:21:46.890Z,11.40
2023-03-17T17:24:15.855Z,11.36
2023-03-17T17:26:45.059Z,11.44
2023-03-17T17:29:15.152Z,11.40
2023-03-17T17:31:43.950Z,11.48
2023-03-17T17:34:15.424Z,11.42
2023-03-17T17:36:44.375Z,11.36
2023-03-17T17:39:20.626Z,11.30
2023-03-17T17:41:54.635Z,11.11
2023-03-17T17:44:23.355Z,11.07
2023-03-17T17:47:02.792Z,11.18
2023-03-17T17:49:32.309Z,11.39
2023-03-17T17:52:06.942Z,11.45
2023-03-17T17:54:39.911Z,11.83
2023-03-17T17:57:16.437Z,12.51
2023-03-17T17:59:54.372Z,13.26
2023-03-17T18:02:36.783Z,13.79
2023-03-17T18:05:14.353Z,13.82
2023-03-17T18:07:43.229Z,13.60
2023-03-17T18:10:19.025Z,13.04
2023-03-17T18:12:51.172Z,12.64
2023-03-17T18:15:24.161Z,12.29
2023-03-17T18:17:55.025Z,12.27
2023-03-17T18:20:24.253Z,12.16
2023-03-17T18:22:53.212Z,11.95
2023-03-17T18:25:25.661Z,11.82
2023-03-17T18:27:58.199Z,11.66
2023-03-17T18:30:28.697Z,11.70
2023-03-17T18:32:59.783Z,11.60
2023-03-17T18:35:29.684Z,11.68
2023-03-17T18:37:59.085Z,11.71
2023-03-17T18:40:28.803Z,11.58
2023-03-17T18:43:02.845Z,11.37
2023-03-17T18:45:34.284Z,11.17
2023-03-17T18:48:09.354Z,11.21
2023-03-17T18:50:42.409Z,11.08
2023-03-17T18:53:14.872Z,11.09
2023-03-17T18:55:52.120Z,11.22
2023-03-17T18:58:20.922Z,11.20
2023-03-17T19:00:53.675Z,10.90
2023-03-17T19:03:22.553Z,10.98
2023-03-17T19:05:51.935Z,11.02
2023-03-17T19:08:21.683Z,10.89
2023-03-17T19:10:50.786Z,10.88
2023-03-17T19:13:19.292Z,11.01
2023-03-17T19:15:52.392Z,10.98
2023-03-17T19:18:23.253Z,10.89
2023-03-17T19:20:53.785Z,10.67
2023-03-17T19:23:27.122Z,10.66
2023-03-17T19:25:57.016Z,10.73
2023-03-17T19:28:32.506Z,10.71
2023-03-17T19:31:25.123Z,10.86
2023-03-17T19:34:05.604Z,10.98
2023-03-17T19:37:01.876Z,10.95
2023-03-17T19:39:56.661Z,11.02
2023-03-17T19:47:11.632Z,10.93
2023-03-17T19:50:13.937Z,10.55
2023-03-17T19:52:50.068Z,10.64
2023-03-17T19:55:25.358Z,10.65
2023-03-17T19:57:58.175Z,10.78
2023-03-17T20:00:28.265Z,10.83
2023-03-17T20:02:57.001Z,10.73
2023-03-17T20:05:27.253Z,10.43
2023-03-17T20:08:01.961Z,10.52
2023-03-17T20:10:31.144Z,10.31
2023-03-17T20:13:08.958Z,10.23
2023-03-17T20:15:40.199Z,10.32
2023-03-17T20:18:11.501Z,10.08
2023-03-17T20:20:49.641Z,10.09
2023-03-17T20:23:18.844Z,9.98
2023-03-17T20:25:57.710Z,9.99
2023-03-17T20:28:32.084Z,10.05
2023-03-17T20:31:08.413Z,9.85
2023-03-17T20:33:46.419Z,10.06
2023-03-17T20:36:18.069Z,10.01
2023-03-17T20:38:52.055Z,9.90
2023-03-17T20:41:30.632Z,9.90
2023-03-17T20:44:05.788Z,9.86
2023-03-17T20:46:39.201Z,9.60
2023-03-17T20:54:31.315Z,9.90
2023-03-17T20:58:00.590Z,9.60
2023-03-17T21:00:36.805Z,9.75
2023-03-17T21:03:29.371Z,9.92
2023-03-17T21:05:59.385Z,9.81
2023-03-17T21:09:11.708Z,9.86
2023-03-17T21:50:08.156Z,9.53
2023-03-17T21:56:14.778Z,9.46
